createdAt,value
2022-08-25T00:01:40.180Z,26.59
2022-08-25T00:04:11.095Z,26.56
2022-08-25T00:06:39.802Z,26.53
2022-08-25T00:09:08.556Z,26.52
2022-08-25T00:11:37.417Z,26.51
2022-08-25T00:14:08.587Z,26.49
2022-08-25T00:16:35.735Z,26.50
2022-08-25T00:19:09.487Z,26.53
2022-08-25T00:21:36.927Z,26.57
2022-08-25T00:24:04.731Z,26.60
2022-08-25T00:26:32.139Z,26.57
2022-08-25T00:29:01.691Z,26.55
2022-08-25T00:31:38.510Z,26.56
2022-08-25T00:34:13.515Z,26.50
2022-08-25T00:36:41.615Z,26.49
2022-08-25T00:39:10.298Z,26.45
2022-08-25T00:41:39.575Z,26.46
2022-08-25T00:44:09.941Z,26.45
2022-08-25T00:46:43.209Z,26.41
2022-08-25T00:49:17.937Z,26.34
2022-08-25T00:52:07.607Z,26.33
2022-08-25T00:54:42.325Z,26.32
2022-08-25T00:57:13.024Z,26.32
2022-08-25T00:59:41.549Z,26.32
2022-08-25T01:02:10.315Z,26.35
2022-08-25T01:04:48.924Z,26.37
2022-08-25T01:07:19.701Z,26.31
2022-08-25T01:09:49.999Z,26.38
2022-08-25T01:12:17.559Z,26.35
2022-08-25T01:14:46.752Z,26.38
2022-08-25T01:17:15.078Z,26.40
2022-08-25T01:19:42.668Z,26.42
2022-08-25T01:22:12.162Z,26.41
2022-08-25T01:24:56.598Z,26.31
2022-08-25T01:27:23.769Z,26.28
2022-08-25T01:29:51.235Z,26.25
2022-08-25T01:32:18.438Z,26.25
2022-08-25T01:34:46.580Z,26.27
2022-08-25T01:37:15.785Z,26.22
2022-08-25T01:39:44.131Z,26.19
2022-08-25T01:42:19.816Z,26.17
2022-08-25T01:44:48.198Z,26.21
2022-08-25T01:47:16.270Z,26.20
2022-08-25T01:49:43.844Z,26.21
2022-08-25T01:52:25.227Z,26.22
2022-08-25T01:54:52.410Z,26.26
2022-08-25T01:57:19.628Z,26.03
2022-08-25T01:59:47.671Z,25.95
2022-08-25T02:02:14.927Z,25.99
2022-08-25T02:04:45.577Z,26.06
2022-08-25T02:07:12.696Z,26.05
2022-08-25T02:09:41.083Z,26.07
2022-08-25T02:12:09.755Z,26.06
2022-08-25T02:14:37.891Z,26.08
2022-08-25T02:17:05.810Z,26.02
2022-08-25T02:19:33.587Z,26.06
2022-08-25T02:22:01.475Z,26.04
2022-08-25T02:24:29.280Z,26.05
2022-08-25T02:26:58.111Z,26.06
2022-08-25T02:29:25.497Z,26.08
2022-08-25T02:31:53.041Z,26.09
2022-08-25T02:34:20.159Z,26.09
2022-08-25T02:36:47.317Z,26.03
2022-08-25T02:39:14.618Z,26.10
2022-08-25T02:41:42.511Z,26.10
2022-08-25T02:44:09.853Z,26.09
2022-08-25T02:46:37.771Z,26.07
2022-08-25T02:49:07.280Z,26.04
2022-08-25T02:51:35.520Z,26.04
2022-08-25T02:54:04.873Z,25.98
2022-08-25T02:56:33.166Z,25.99
2022-08-25T02:59:01.281Z,25.99
2022-08-25T03:01:29.275Z,25.99
2022-08-25T03:03:57.514Z,25.97
2022-08-25T03:06:43.493Z,25.97
2022-08-25T03:09:11.856Z,25.99
2022-08-25T03:11:39.180Z,26.00
2022-08-25T03:14:08.376Z,26.01
2022-08-25T03:16:36.139Z,26.01
2022-08-25T03:19:04.622Z,26.00
2022-08-25T03:21:33.003Z,26.00
2022-08-25T03:24:00.932Z,26.02
2022-08-25T03:26:46.578Z,26.04
2022-08-25T03:29:14.032Z,26.05
2022-08-25T03:31:43.075Z,26.02
2022-08-25T03:34:11.705Z,25.98
2022-08-25T03:36:39.211Z,25.97
2022-08-25T03:39:08.470Z,25.92
2022-08-25T03:41:36.068Z,25.93
2022-08-25T03:44:05.369Z,25.92
2022-08-25T03:46:37.777Z,25.91
2022-08-25T03:49:06.994Z,25.85
2022-08-25T03:51:41.313Z,25.86
2022-08-25T03:54:09.647Z,25.89
2022-08-25T03:56:38.093Z,25.89
2022-08-25T03:59:06.117Z,25.90
2022-08-25T04:01:33.300Z,25.87
2022-08-25T04:04:00.448Z,25.92
2022-08-25T04:06:27.573Z,25.91
2022-08-25T04:08:54.751Z,25.91
2022-08-25T04:11:23.794Z,25.92
2022-08-25T04:13:52.735Z,25.93
2022-08-25T04:16:25.256Z,25.96
2022-08-25T04:18:54.127Z,25.97
2022-08-25T04:21:22.863Z,25.98
2022-08-25T04:23:52.099Z,25.97
2022-08-25T04:26:20.991Z,25.97
2022-08-25T04:28:48.820Z,25.97
2022-08-25T04:31:17.771Z,25.98
2022-08-25T04:33:48.193Z,25.97
2022-08-25T04:36:17.439Z,25.99
2022-08-25T04:38:46.044Z,25.98
2022-08-25T04:41:15.509Z,26.00
2022-08-25T04:43:44.538Z,26.02
2022-08-25T04:46:23.383Z,26.01
2022-08-25T04:48:52.117Z,26.03
2022-08-25T04:51:23.540Z,26.10
2022-08-25T04:53:51.559Z,26.09
2022-08-25T04:56:24.896Z,26.08
2022-08-25T04:58:53.751Z,26.06
2022-08-25T05:01:24.353Z,26.03
2022-08-25T05:03:57.772Z,26.06
2022-08-25T05:06:25.546Z,25.92
2022-08-25T05:08:53.078Z,25.84
2022-08-25T05:11:23.588Z,25.92
2022-08-25T05:13:53.270Z,25.96
2022-08-25T05:16:23.043Z,25.88
2022-08-25T05:18:50.615Z,25.72
2022-08-25T05:21:20.523Z,25.68
2022-08-25T05:23:48.176Z,25.76
2022-08-25T05:26:20.609Z,25.58
2022-08-25T05:28:54.026Z,25.57
2022-08-25T05:31:22.773Z,25.69
2022-08-25T05:33:51.095Z,25.79
2022-08-25T05:36:21.810Z,25.78
2022-08-25T05:38:49.963Z,25.81
2022-08-25T05:41:26.424Z,25.86
2022-08-25T05:43:53.517Z,25.90
2022-08-25T05:46:22.053Z,25.97
2022-08-25T05:48:50.081Z,26.00
2022-08-25T05:51:17.879Z,25.98
2022-08-25T05:53:48.028Z,25.91
2022-08-25T05:56:15.502Z,25.89
2022-08-25T05:58:43.547Z,25.74
2022-08-25T06:01:43.467Z,25.64
2022-08-25T06:04:14.052Z,25.69
2022-08-25T06:06:41.546Z,25.71
2022-08-25T06:09:10.681Z,25.85
2022-08-25T06:11:40.057Z,25.93
2022-08-25T06:14:09.634Z,26.02
2022-08-25T06:16:38.953Z,26.07
2022-08-25T06:19:08.209Z,26.13
2022-08-25T06:21:35.706Z,26.10
2022-08-25T06:24:03.026Z,26.08
2022-08-25T06:26:30.245Z,26.04
2022-08-25T06:28:57.760Z,26.02
2022-08-25T06:31:24.929Z,26.06
2022-08-25T06:33:52.378Z,26.05
2022-08-25T06:36:20.153Z,26.01
2022-08-25T06:38:48.237Z,26.11
2022-08-25T06:41:16.723Z,26.14
2022-08-25T06:43:49.010Z,26.17
2022-08-25T06:46:23.107Z,26.18
2022-08-25T06:49:04.181Z,26.12
2022-08-25T06:51:31.316Z,26.12
2022-08-25T06:53:58.622Z,26.24
2022-08-25T06:56:26.637Z,26.37
2022-08-25T06:58:53.893Z,26.40
2022-08-25T07:01:26.318Z,26.49
2022-08-25T07:03:59.878Z,26.54
2022-08-25T07:06:28.211Z,26.55
2022-08-25T07:08:56.245Z,26.58
2022-08-25T07:11:25.298Z,26.66
2022-08-25T07:13:52.705Z,26.70
2022-08-25T07:16:21.021Z,26.61
2022-08-25T07:18:48.972Z,26.57
2022-08-25T07:21:16.888Z,26.67
2022-08-25T07:23:45.833Z,26.69
2022-08-25T07:29:18.226Z,26.66
2022-08-25T07:31:47.443Z,26.73
2022-08-25T07:34:33.894Z,26.82
2022-08-25T07:37:05.259Z,26.79
2022-08-25T07:39:33.947Z,26.86
2022-08-25T07:42:01.313Z,26.96
2022-08-25T07:44:29.073Z,27.04
2022-08-25T07:46:56.491Z,27.12
2022-08-25T07:49:26.272Z,27.27
2022-08-25T07:52:03.690Z,27.40
2022-08-25T07:54:34.231Z,27.52
2022-08-25T07:57:06.986Z,27.58
2022-08-25T07:59:39.614Z,27.66
2022-08-25T08:02:18.428Z,27.75
2022-08-25T08:04:50.094Z,27.86
2022-08-25T08:07:19.655Z,27.89
2022-08-25T08:09:53.071Z,27.91
2022-08-25T08:12:24.954Z,27.95
2022-08-25T08:14:52.540Z,27.94
2022-08-25T08:17:22.588Z,27.92
2022-08-25T08:19:50.508Z,27.96
2022-08-25T08:22:18.154Z,28.09
2022-08-25T08:24:54.438Z,28.22
2022-08-25T08:27:23.549Z,28.21
2022-08-25T08:29:50.783Z,28.23
2022-08-25T08:32:18.520Z,28.36
2022-08-25T08:34:46.677Z,28.36
2022-08-25T08:37:20.263Z,28.34
2022-08-25T08:39:51.424Z,28.37
2022-08-25T08:42:25.156Z,28.38
2022-08-25T08:45:22.563Z,28.47
2022-08-25T08:48:27.352Z,28.42
2022-08-25T08:51:23.234Z,28.55
2022-08-25T08:54:04.808Z,28.62
2022-08-25T08:56:38.653Z,28.76
2022-08-25T08:59:29.784Z,28.88
2022-08-25T09:02:00.778Z,28.91
2022-08-25T09:04:48.679Z,29.04
2022-08-25T09:07:30.207Z,29.15
2022-08-25T09:09:59.552Z,29.23
2022-08-25T09:12:38.070Z,29.29
2022-08-25T09:15:18.520Z,29.36
2022-08-25T09:18:02.168Z,29.34
2022-08-25T09:20:36.866Z,29.46
2022-08-25T09:23:06.919Z,29.54
2022-08-25T09:25:55.379Z,29.68
2022-08-25T09:28:35.850Z,29.74
2022-08-25T09:31:29.560Z,29.88
2022-08-25T09:34:00.121Z,30.00
2022-08-25T09:36:28.015Z,30.19
2022-08-25T09:38:56.472Z,30.28
2022-08-25T09:41:51.338Z,30.37
2022-08-25T09:44:26.212Z,30.31
2022-08-25T09:47:30.222Z,30.22
2022-08-25T09:50:04.571Z,30.33
2022-08-25T09:52:41.449Z,30.29
2022-08-25T09:55:08.874Z,30.19
2022-08-25T09:57:43.384Z,30.24
2022-08-25T10:00:16.200Z,30.36
2022-08-25T10:02:46.311Z,30.44
2022-08-25T10:05:35.737Z,30.44
2022-08-25T10:08:14.674Z,30.46
2022-08-25T10:10:55.090Z,30.47
2022-08-25T10:13:34.101Z,30.36
2022-08-25T10:16:24.216Z,30.41
2022-08-25T10:19:06.753Z,30.58
2022-08-25T10:21:37.051Z,30.73
2022-08-25T10:24:06.059Z,30.91
2022-08-25T10:27:13.241Z,30.98
2022-08-25T10:29:58.908Z,31.17
2022-08-25T10:32:44.735Z,31.15
2022-08-25T10:35:23.516Z,31.11
2022-08-25T10:38:30.202Z,31.14
2022-08-25T10:41:27.255Z,31.16
2022-08-25T10:44:00.532Z,31.22
2022-08-25T10:46:46.455Z,31.20
2022-08-25T10:49:19.738Z,31.23
2022-08-25T10:51:55.343Z,31.25
2022-08-25T10:54:46.791Z,31.34
2022-08-25T10:57:32.620Z,31.42
2022-08-25T11:00:28.763Z,31.50
2022-08-25T11:03:02.062Z,31.56
2022-08-25T11:05:43.860Z,31.61
2022-08-25T11:08:44.860Z,31.78
2022-08-25T11:11:35.000Z,31.87
2022-08-25T11:14:27.951Z,31.71
2022-08-25T11:16:56.561Z,31.73
2022-08-25T11:19:53.965Z,31.66
2022-08-25T11:22:39.870Z,31.59
2022-08-25T11:25:29.360Z,31.51
2022-08-25T11:28:18.719Z,31.44
2022-08-25T11:30:47.078Z,31.51
2022-08-25T11:33:16.992Z,31.56
2022-08-25T11:35:52.433Z,31.53
2022-08-25T11:38:19.663Z,31.51
2022-08-25T11:40:51.049Z,31.55
2022-08-25T11:43:27.117Z,31.56
2022-08-25T11:46:09.873Z,31.44
2022-08-25T11:48:39.916Z,31.50
2022-08-25T11:51:11.053Z,31.54
2022-08-25T11:53:43.389Z,31.58
2022-08-25T11:56:31.675Z,31.64
2022-08-25T11:58:59.959Z,31.68
2022-08-25T12:01:39.295Z,31.56
2022-08-25T12:04:14.842Z,31.61
2022-08-25T12:07:11.368Z,31.60
2022-08-25T12:09:51.074Z,31.40
2022-08-25T12:12:43.973Z,31.34
2022-08-25T12:15:43.849Z,31.37
2022-08-25T12:18:45.478Z,31.37
2022-08-25T12:21:15.256Z,31.35
2022-08-25T12:24:01.986Z,31.26
2022-08-25T12:26:49.331Z,31.20
2022-08-25T12:29:29.987Z,31.14
2022-08-25T12:31:57.383Z,31.19
2022-08-25T12:34:54.885Z,31.25
2022-08-25T12:37:25.131Z,31.31
2022-08-25T12:39:58.812Z,31.36
2022-08-25T12:42:37.880Z,31.48
2022-08-25T12:45:54.021Z,31.58
2022-08-25T12:48:27.083Z,31.59
2022-08-25T12:51:15.316Z,31.58
2022-08-25T12:53:42.592Z,31.61
2022-08-25T12:56:37.494Z,31.65
2022-08-25T12:59:44.697Z,31.63
2022-08-25T13:02:39.927Z,31.63
2022-08-25T13:05:53.026Z,31.53
2022-08-25T13:08:33.748Z,31.39
2022-08-25T13:11:40.417Z,31.46
2022-08-25T13:14:29.284Z,31.42
2022-08-25T13:16:59.693Z,31.53
2022-08-25T13:19:34.656Z,31.59
2022-08-25T13:22:16.089Z,31.65
2022-08-25T13:24:47.359Z,31.71
2022-08-25T13:27:26.715Z,31.80
2022-08-25T13:29:57.149Z,31.88
2022-08-25T13:32:32.373Z,32.01
2022-08-25T13:35:32.118Z,32.09
2022-08-25T13:38:17.449Z,32.11
2022-08-25T13:40:45.251Z,32.21
2022-08-25T13:43:14.333Z,32.23
2022-08-25T13:45:47.874Z,32.35
2022-08-25T13:48:40.317Z,32.53
2022-08-25T13:51:21.432Z,32.49
2022-08-25T13:53:56.068Z,32.62
2022-08-25T13:56:38.475Z,32.73
2022-08-25T13:59:34.388Z,32.82
2022-08-25T14:02:08.986Z,32.91
2022-08-25T14:04:50.821Z,33.01
2022-08-25T14:07:34.157Z,33.03
2022-08-25T14:10:11.431Z,33.09
2022-08-25T14:12:44.943Z,33.10
2022-08-25T14:15:18.462Z,33.22
2022-08-25T14:18:00.873Z,33.20
2022-08-25T14:20:31.289Z,33.28
2022-08-25T14:23:16.204Z,33.35
2022-08-25T14:25:47.328Z,33.43
2022-08-25T14:28:18.074Z,33.53
2022-08-25T14:30:54.924Z,33.54
2022-08-25T14:33:28.412Z,33.41
2022-08-25T14:35:59.883Z,33.37
2022-08-25T14:38:27.274Z,33.36
2022-08-25T14:40:55.030Z,33.38
2022-08-25T14:43:31.509Z,33.38
2022-08-25T14:46:02.540Z,33.34
2022-08-25T14:48:35.790Z,33.23
2022-08-25T14:51:04.412Z,33.21
2022-08-25T14:53:32.875Z,33.31
2022-08-25T14:56:08.420Z,33.47
2022-08-25T14:58:48.554Z,33.63
2022-08-25T15:01:21.423Z,33.76
2022-08-25T15:04:15.773Z,33.80
2022-08-25T15:06:45.705Z,33.83
2022-08-25T15:09:16.398Z,33.92
2022-08-25T15:11:50.620Z,33.98
2022-08-25T15:14:28.411Z,34.02
2022-08-25T15:16:57.500Z,34.05
2022-08-25T15:19:27.134Z,34.11
2022-08-25T15:21:58.153Z,34.18
2022-08-25T15:24:28.190Z,34.23
2022-08-25T15:26:58.626Z,34.25
2022-08-25T15:29:29.887Z,34.30
2022-08-25T15:31:59.200Z,34.34
2022-08-25T15:34:26.623Z,34.31
2022-08-25T15:36:54.110Z,34.25
2022-08-25T15:39:21.546Z,34.23
2022-08-25T15:41:52.270Z,34.27
2022-08-25T15:44:20.139Z,34.28
2022-08-25T15:46:50.092Z,34.25
2022-08-25T15:49:23.168Z,34.25
2022-08-25T15:51:51.101Z,34.23
2022-08-25T15:54:18.372Z,34.23
2022-08-25T15:56:46.019Z,34.24
2022-08-25T15:59:13.673Z,34.21
2022-08-25T16:01:41.706Z,34.21
2022-08-25T16:04:08.910Z,34.11
2022-08-25T16:06:38.374Z,34.21
2022-08-25T16:09:06.707Z,34.18
2022-08-25T16:11:35.852Z,33.99
2022-08-25T16:14:06.292Z,33.88
2022-08-25T16:16:34.286Z,33.88
2022-08-25T16:19:01.810Z,33.87
2022-08-25T16:21:33.145Z,33.87
2022-08-25T16:24:07.272Z,33.82
2022-08-25T16:26:36.609Z,33.84
2022-08-25T16:29:07.121Z,33.79
2022-08-25T16:31:34.690Z,33.70
2022-08-25T16:34:01.973Z,33.62
2022-08-25T16:36:29.475Z,33.56
2022-08-25T16:38:57.844Z,33.50
2022-08-25T16:41:33.975Z,33.43
2022-08-25T16:44:11.149Z,33.37
2022-08-25T16:46:40.770Z,33.27
2022-08-25T16:49:10.288Z,33.26
2022-08-25T16:51:38.884Z,33.22
2022-08-25T16:54:26.461Z,33.15
2022-08-25T16:56:55.060Z,33.04
2022-08-25T16:59:23.581Z,32.96
2022-08-25T17:01:52.319Z,32.84
2022-08-25T17:04:20.619Z,32.71
2022-08-25T17:06:51.724Z,32.55
2022-08-25T17:09:23.929Z,32.37
2022-08-25T17:11:56.843Z,32.27
2022-08-25T17:14:25.025Z,32.23
2022-08-25T17:16:55.294Z,32.19
2022-08-25T17:19:25.051Z,32.10
2022-08-25T17:21:54.915Z,32.04
2022-08-25T17:24:22.575Z,31.93
2022-08-25T17:26:57.028Z,31.86
2022-08-25T17:29:24.637Z,31.77
2022-08-25T17:31:52.032Z,31.66
2022-08-25T17:34:23.425Z,31.59
2022-08-25T17:36:51.680Z,31.53
2022-08-25T17:39:22.278Z,31.40
2022-08-25T17:41:50.739Z,31.30
2022-08-25T17:44:18.830Z,31.19
2022-08-25T17:46:48.105Z,31.08
2022-08-25T17:49:19.638Z,31.05
2022-08-25T17:51:46.984Z,30.96
2022-08-25T17:54:14.656Z,30.92
2022-08-25T17:56:42.098Z,30.86
2022-08-25T17:59:09.946Z,30.77
2022-08-25T18:01:40.797Z,30.71
2022-08-25T18:04:17.649Z,30.65
2022-08-25T18:06:47.631Z,30.57
2022-08-25T18:09:16.259Z,30.53
2022-08-25T18:11:44.905Z,30.55
2022-08-25T18:14:13.976Z,30.49
2022-08-25T18:16:42.252Z,30.47
2022-08-25T18:19:11.016Z,30.40
2022-08-25T18:21:38.926Z,30.39
2022-08-25T18:24:07.289Z,30.37
2022-08-25T18:26:35.702Z,30.33
2022-08-25T18:29:03.893Z,30.26
2022-08-25T18:31:32.205Z,30.15
2022-08-25T18:33:59.566Z,30.10
2022-08-25T18:36:26.836Z,30.02
2022-08-25T18:39:34.731Z,29.90
2022-08-25T18:42:04.534Z,29.82
2022-08-25T18:44:32.746Z,29.61
2022-08-25T18:46:59.989Z,29.62
2022-08-25T18:49:35.173Z,29.56
2022-08-25T18:52:02.357Z,29.51
2022-08-25T18:54:30.431Z,29.52
2022-08-25T18:56:57.685Z,29.52
2022-08-25T18:59:24.889Z,29.48
2022-08-25T19:01:53.897Z,29.47
2022-08-25T19:04:28.365Z,29.46
2022-08-25T19:07:01.127Z,29.43
2022-08-25T19:09:28.990Z,29.40
2022-08-25T19:11:58.877Z,29.41
2022-08-25T19:14:26.407Z,29.39
2022-08-25T19:16:54.643Z,29.37
2022-08-25T19:19:23.983Z,29.34
2022-08-25T19:21:51.745Z,29.31
2022-08-25T19:24:19.475Z,29.29
2022-08-25T19:26:49.538Z,29.25
2022-08-25T19:29:19.664Z,29.24
2022-08-25T19:31:49.112Z,29.16
2022-08-25T19:34:28.300Z,29.13
2022-08-25T19:37:00.289Z,29.07
2022-08-25T19:39:27.824Z,29.00
2022-08-25T19:41:56.980Z,28.94
2022-08-25T19:44:24.480Z,28.93
2022-08-25T19:46:52.084Z,28.93
2022-08-25T19:49:26.454Z,28.96
2022-08-25T19:51:55.871Z,28.91
2022-08-25T19:54:32.421Z,28.87
2022-08-25T19:56:59.745Z,28.85
2022-08-25T19:59:34.172Z,28.89
2022-08-25T20:02:06.027Z,28.85
2022-08-25T20:04:34.523Z,28.79
2022-08-25T20:07:02.551Z,28.75
2022-08-25T20:09:38.966Z,28.78
2022-08-25T20:12:10.795Z,28.78
2022-08-25T20:14:38.388Z,28.77
2022-08-25T20:17:23.139Z,28.72
2022-08-25T20:19:54.409Z,28.72
2022-08-25T20:22:26.219Z,28.71
2022-08-25T20:24:58.070Z,28.63
2022-08-25T20:27:34.004Z,28.63
2022-08-25T20:30:03.246Z,28.66
2022-08-25T20:32:33.144Z,28.63
2022-08-25T20:35:01.941Z,28.63
2022-08-25T20:37:29.649Z,28.35
2022-08-25T20:39:57.507Z,28.29
2022-08-25T20:42:25.313Z,28.31
2022-08-25T20:44:54.736Z,28.22
2022-08-25T20:47:22.725Z,28.31
2022-08-25T20:49:50.406Z,28.43
2022-08-25T20:52:20.100Z,28.49
2022-08-25T20:54:49.425Z,28.49
2022-08-25T20:57:25.927Z,28.51
2022-08-25T20:59:54.914Z,28.48
2022-08-25T21:02:23.340Z,28.49
2022-08-25T21:04:50.773Z,28.52
2022-08-25T21:07:18.807Z,28.57
2022-08-25T21:09:46.527Z,28.55
2022-08-25T21:12:15.433Z,28.45
2022-08-25T21:14:42.691Z,28.43
2022-08-25T21:17:15.067Z,28.36
2022-08-25T21:19:43.007Z,28.14
2022-08-25T21:22:11.271Z,28.09
2022-08-25T21:24:38.660Z,28.08
2022-08-25T21:27:06.586Z,28.07
2022-08-25T21:29:34.100Z,28.09
2022-08-25T21:32:01.635Z,28.13
2022-08-25T21:34:29.583Z,28.28
2022-08-25T21:36:58.372Z,28.27
2022-08-25T21:39:28.719Z,28.31
2022-08-25T21:41:56.623Z,28.31
2022-08-25T21:44:23.820Z,28.36
2022-08-25T21:46:54.264Z,28.37
2022-08-25T21:49:23.547Z,28.41
2022-08-25T21:52:00.102Z,28.43
2022-08-25T21:54:29.190Z,28.44
2022-08-25T21:56:59.938Z,28.43
2022-08-25T21:59:30.104Z,28.46
2022-08-25T22:01:59.933Z,28.34
2022-08-25T22:04:28.631Z,28.35
2022-08-25T22:06:58.017Z,28.35
2022-08-25T22:09:26.124Z,28.41
2022-08-25T22:11:55.937Z,28.38
2022-08-25T22:14:26.267Z,28.39
2022-08-25T22:16:54.877Z,28.42
2022-08-25T22:19:23.118Z,28.38
2022-08-25T22:21:51.333Z,28.42
2022-08-25T22:24:19.461Z,28.40
2022-08-25T22:26:48.573Z,28.39
2022-08-25T22:29:24.764Z,28.39
2022-08-25T22:32:00.849Z,28.35
2022-08-25T22:34:34.460Z,28.35
2022-08-25T22:37:03.707Z,28.36
2022-08-25T22:39:34.200Z,28.33
2022-08-25T22:42:02.997Z,28.34
2022-08-25T22:44:30.649Z,28.34
2022-08-25T22:46:57.890Z,28.27
2022-08-25T22:49:28.606Z,28.35
2022-08-25T22:51:56.117Z,28.31
2022-08-25T22:54:25.308Z,28.27
2022-08-25T22:56:53.421Z,28.25
2022-08-25T22:59:22.092Z,28.22
2022-08-25T23:01:52.681Z,28.11
2022-08-25T23:04:22.225Z,28.18
2022-08-25T23:06:50.216Z,28.19
2022-08-25T23:09:17.828Z,28.18
2022-08-25T23:11:45.132Z,28.16
2022-08-25T23:14:13.170Z,28.13
2022-08-25T23:16:42.676Z,28.13
2022-08-25T23:19:11.427Z,28.13
2022-08-25T23:22:00.721Z,28.10
2022-08-25T23:24:29.824Z,28.12
2022-08-25T23:26:58.996Z,28.11
2022-08-25T23:29:27.901Z,28.09
2022-08-25T23:31:55.826Z,28.09
2022-08-25T23:34:23.412Z,28.04
2022-08-25T23:36:51.898Z,28.04
2022-08-25T23:39:21.929Z,28.02
2022-08-25T23:41:50.747Z,28.02
2022-08-25T23:44:19.307Z,28.04
2022-08-25T23:46:47.839Z,28.03
2022-08-25T23:49:18.459Z,28.00
2022-08-25T23:51:48.961Z,27.93
2022-08-25T23:54:18.333Z,28.00
2022-08-25T23:56:51.720Z,27.93
2022-08-25T23:59:24.012Z,27.88
